sensor_id;sensor_type;location;lat;lon;timestamp;temperature;humidity
22098;DHT22;11215;51.938;8.464;2023-09-19T00:00:06;20.20;72.00
22098;DHT22;11215;51.938;8.464;2023-09-19T00:02:32;20.20;72.00
22098;DHT22;11215;51.938;8.464;2023-09-19T00:04:58;20.20;71.90
22098;DHT22;11215;51.938;8.464;2023-09-19T00:07:24;20.20;71.80
22098;DHT22;11215;51.938;8.464;2023-09-19T00:09:50;20.10;71.90
22098;DHT22;11215;51.938;8.464;2023-09-19T00:12:15;20.10;72.00
22098;DHT22;11215;51.938;8.464;2023-09-19T00:14:41;20.10;72.20
22098;DHT22;11215;51.938;8.464;2023-09-19T00:17:06;20.10;72.20
22098;DHT22;11215;51.938;8.464;2023-09-19T00:19:32;20.10;72.20
22098;DHT22;11215;51.938;8.464;2023-09-19T00:21:58;20.00;72.20
22098;DHT22;11215;51.938;8.464;2023-09-19T00:24:24;20.00;72.30
22098;DHT22;11215;51.938;8.464;2023-09-19T00:26:49;20.00;72.50
22098;DHT22;11215;51.938;8.464;2023-09-19T00:29:15;20.00;72.50
22098;DHT22;11215;51.938;8.464;2023-09-19T00:31:44;20.00;72.50
22098;DHT22;11215;51.938;8.464;2023-09-19T00:34:10;20.00;72.60
22098;DHT22;11215;51.938;8.464;2023-09-19T00:36:39;19.90;72.40
22098;DHT22;11215;51.938;8.464;2023-09-19T00:39:05;19.90;72.60
22098;DHT22;11215;51.938;8.464;2023-09-19T00:41:34;19.90;72.30
22098;DHT22;11215;51.938;8.464;2023-09-19T00:44:03;19.90;72.50
22098;DHT22;11215;51.938;8.464;2023-09-19T00:46:31;19.80;72.30
22098;DHT22;11215;51.938;8.464;2023-09-19T00:48:58;19.80;72.60
22098;DHT22;11215;51.938;8.464;2023-09-19T00:51:25;19.80;72.70
22098;DHT22;11215;51.938;8.464;2023-09-19T00:53:52;19.80;72.60
22098;DHT22;11215;51.938;8.464;2023-09-19T00:56:19;19.80;72.70
22098;DHT22;11215;51.938;8.464;2023-09-19T00:58:45;19.80;72.70
22098;DHT22;11215;51.938;8.464;2023-09-19T01:01:14;19.80;72.70
22098;DHT22;11215;51.938;8.464;2023-09-19T01:03:44;19.70;72.60
22098;DHT22;11215;51.938;8.464;2023-09-19T01:06:10;19.80;73.20
22098;DHT22;11215;51.938;8.464;2023-09-19T01:08:36;19.70;72.60
22098;DHT22;11215;51.938;8.464;2023-09-19T01:11:43;19.70;72.70
22098;DHT22;11215;51.938;8.464;2023-09-19T01:14:15;19.80;73.10
22098;DHT22;11215;51.938;8.464;2023-09-19T01:30:27;19.60;72.50
22098;DHT22;11215;51.938;8.464;2023-09-19T01:32:59;19.60;72.80
22098;DHT22;11215;51.938;8.464;2023-09-19T01:35:25;19.60;72.90
22098;DHT22;11215;51.938;8.464;2023-09-19T01:37:51;19.60;72.70
22098;DHT22;11215;51.938;8.464;2023-09-19T01:40:19;19.60;72.70
22098;DHT22;11215;51.938;8.464;2023-09-19T01:43:07;19.60;72.60
22098;DHT22;11215;51.938;8.464;2023-09-19T01:45:46;19.60;72.60
22098;DHT22;11215;51.938;8.464;2023-09-19T01:50:59;19.60;72.50
22098;DHT22;11215;51.938;8.464;2023-09-19T01:53:28;19.60;72.50
22098;DHT22;11215;51.938;8.464;2023-09-19T01:55:59;19.60;72.50
22098;DHT22;11215;51.938;8.464;2023-09-19T02:00:53;19.60;72.10
22098;DHT22;11215;51.938;8.464;2023-09-19T02:03:21;19.60;72.30
22098;DHT22;11215;51.938;8.464;2023-09-19T02:05:53;19.50;72.70
22098;DHT22;11215;51.938;8.464;2023-09-19T02:08:20;19.50;71.70
22098;DHT22;11215;51.938;8.464;2023-09-19T02:10:49;19.50;71.80
22098;DHT22;11215;51.938;8.464;2023-09-19T02:13:18;19.50;72.10
22098;DHT22;11215;51.938;8.464;2023-09-19T02:15:44;19.50;72.00
22098;DHT22;11215;51.938;8.464;2023-09-19T02:18:11;19.40;72.00
22098;DHT22;11215;51.938;8.464;2023-09-19T02:20:43;19.40;72.00
22098;DHT22;11215;51.938;8.464;2023-09-19T02:23:09;19.40;71.80
22098;DHT22;11215;51.938;8.464;2023-09-19T02:25:36;19.40;71.70
22098;DHT22;11215;51.938;8.464;2023-09-19T02:28:03;19.40;71.70
22098;DHT22;11215;51.938;8.464;2023-09-19T02:30:29;19.30;71.50
22098;DHT22;11215;51.938;8.464;2023-09-19T02:32:55;19.30;71.50
22098;DHT22;11215;51.938;8.464;2023-09-19T02:35:21;19.30;71.80
22098;DHT22;11215;51.938;8.464;2023-09-19T02:37:50;19.30;71.70
22098;DHT22;11215;51.938;8.464;2023-09-19T02:40:16;19.30;71.50
22098;DHT22;11215;51.938;8.464;2023-09-19T02:42:48;19.30;71.50
22098;DHT22;11215;51.938;8.464;2023-09-19T02:45:18;19.30;71.40
22098;DHT22;11215;51.938;8.464;2023-09-19T02:47:44;19.20;71.30
22098;DHT22;11215;51.938;8.464;2023-09-19T02:50:10;19.20;71.30
22098;DHT22;11215;51.938;8.464;2023-09-19T02:52:37;19.20;71.30
22098;DHT22;11215;51.938;8.464;2023-09-19T02:55:03;19.20;71.30
22098;DHT22;11215;51.938;8.464;2023-09-19T02:57:31;19.20;71.10
22098;DHT22;11215;51.938;8.464;2023-09-19T02:59:59;19.20;71.30
22098;DHT22;11215;51.938;8.464;2023-09-19T03:02:26;19.20;71.30
22098;DHT22;11215;51.938;8.464;2023-09-19T03:04:53;19.10;71.40
22098;DHT22;11215;51.938;8.464;2023-09-19T03:07:19;19.10;71.30
22098;DHT22;11215;51.938;8.464;2023-09-19T03:09:45;19.10;71.30
22098;DHT22;11215;51.938;8.464;2023-09-19T03:12:11;19.10;71.30
22098;DHT22;11215;51.938;8.464;2023-09-19T03:14:37;19.00;71.10
22098;DHT22;11215;51.938;8.464;2023-09-19T03:17:02;19.00;71.00
22098;DHT22;11215;51.938;8.464;2023-09-19T03:19:31;19.00;71.10
22098;DHT22;11215;51.938;8.464;2023-09-19T03:21:59;18.90;71.10
22098;DHT22;11215;51.938;8.464;2023-09-19T03:24:25;18.90;71.10
22098;DHT22;11215;51.938;8.464;2023-09-19T03:26:51;18.90;71.00
22098;DHT22;11215;51.938;8.464;2023-09-19T03:29:17;18.90;71.00
22098;DHT22;11215;51.938;8.464;2023-09-19T03:31:43;18.80;71.00
22098;DHT22;11215;51.938;8.464;2023-09-19T03:34:09;18.80;71.10
22098;DHT22;11215;51.938;8.464;2023-09-19T03:36:35;18.80;71.30
22098;DHT22;11215;51.938;8.464;2023-09-19T03:39:01;18.80;71.20
22098;DHT22;11215;51.938;8.464;2023-09-19T03:41:31;18.70;71.20
22098;DHT22;11215;51.938;8.464;2023-09-19T03:43:56;18.70;71.30
22098;DHT22;11215;51.938;8.464;2023-09-19T03:46:22;18.70;71.20
22098;DHT22;11215;51.938;8.464;2023-09-19T03:48:48;18.70;71.30
22098;DHT22;11215;51.938;8.464;2023-09-19T03:51:13;18.60;71.10
22098;DHT22;11215;51.938;8.464;2023-09-19T03:53:39;18.60;71.10
22098;DHT22;11215;51.938;8.464;2023-09-19T03:56:04;18.60;71.10
22098;DHT22;11215;51.938;8.464;2023-09-19T03:58:30;18.60;71.20
22098;DHT22;11215;51.938;8.464;2023-09-19T04:00:56;18.60;71.30
22098;DHT22;11215;51.938;8.464;2023-09-19T04:03:23;18.60;71.40
22098;DHT22;11215;51.938;8.464;2023-09-19T04:05:50;18.50;71.30
22098;DHT22;11215;51.938;8.464;2023-09-19T04:08:16;18.60;71.20
22098;DHT22;11215;51.938;8.464;2023-09-19T04:10:44;18.50;71.00
22098;DHT22;11215;51.938;8.464;2023-09-19T04:13:11;18.50;71.00
22098;DHT22;11215;51.938;8.464;2023-09-19T04:15:36;18.50;70.90
22098;DHT22;11215;51.938;8.464;2023-09-19T04:18:03;18.50;70.80
22098;DHT22;11215;51.938;8.464;2023-09-19T04:20:29;18.40;70.80
22098;DHT22;11215;51.938;8.464;2023-09-19T04:22:54;18.40;70.60
22098;DHT22;11215;51.938;8.464;2023-09-19T04:25:21;18.40;70.70
22098;DHT22;11215;51.938;8.464;2023-09-19T04:27:46;18.40;70.80
22098;DHT22;11215;51.938;8.464;2023-09-19T04:30:13;18.30;70.80
22098;DHT22;11215;51.938;8.464;2023-09-19T04:32:40;18.30;70.80
22098;DHT22;11215;51.938;8.464;2023-09-19T04:35:10;18.30;70.70
22098;DHT22;11215;51.938;8.464;2023-09-19T04:37:40;18.30;70.50
22098;DHT22;11215;51.938;8.464;2023-09-19T04:40:10;18.30;70.60
22098;DHT22;11215;51.938;8.464;2023-09-19T04:42:43;18.30;70.50
22098;DHT22;11215;51.938;8.464;2023-09-19T04:45:10;18.20;70.50
22098;DHT22;11215;51.938;8.464;2023-09-19T04:47:36;18.20;70.50
22098;DHT22;11215;51.938;8.464;2023-09-19T04:50:06;18.20;70.50
22098;DHT22;11215;51.938;8.464;2023-09-19T04:52:31;18.20;70.50
22098;DHT22;11215;51.938;8.464;2023-09-19T04:54:57;18.10;70.20
22098;DHT22;11215;51.938;8.464;2023-09-19T04:57:23;18.10;70.30
22098;DHT22;11215;51.938;8.464;2023-09-19T04:59:49;18.10;70.20
22098;DHT22;11215;51.938;8.464;2023-09-19T05:02:15;18.10;70.30
22098;DHT22;11215;51.938;8.464;2023-09-19T05:04:41;18.00;70.20
22098;DHT22;11215;51.938;8.464;2023-09-19T05:07:06;18.00;70.10
22098;DHT22;11215;51.938;8.464;2023-09-19T05:09:32;18.00;70.00
22098;DHT22;11215;51.938;8.464;2023-09-19T05:12:00;18.00;70.10
22098;DHT22;11215;51.938;8.464;2023-09-19T05:14:25;17.90;70.00
22098;DHT22;11215;51.938;8.464;2023-09-19T05:16:51;17.90;70.20
22098;DHT22;11215;51.938;8.464;2023-09-19T05:19:17;17.90;70.30
22098;DHT22;11215;51.938;8.464;2023-09-19T05:21:43;17.90;70.50
22098;DHT22;11215;51.938;8.464;2023-09-19T05:24:08;17.90;70.30
22098;DHT22;11215;51.938;8.464;2023-09-19T05:26:34;17.90;70.10
22098;DHT22;11215;51.938;8.464;2023-09-19T05:29:00;17.90;70.00
22098;DHT22;11215;51.938;8.464;2023-09-19T05:31:28;17.90;69.90
22098;DHT22;11215;51.938;8.464;2023-09-19T05:33:54;17.80;69.90
22098;DHT22;11215;51.938;8.464;2023-09-19T05:36:20;17.90;70.00
22098;DHT22;11215;51.938;8.464;2023-09-19T05:38:46;17.80;70.00
22098;DHT22;11215;51.938;8.464;2023-09-19T05:41:37;17.80;70.00
22098;DHT22;11215;51.938;8.464;2023-09-19T05:44:05;17.80;69.60
22098;DHT22;11215;51.938;8.464;2023-09-19T05:46:32;17.80;69.90
22098;DHT22;11215;51.938;8.464;2023-09-19T05:48:58;17.80;69.80
22098;DHT22;11215;51.938;8.464;2023-09-19T05:51:24;17.80;69.90
22098;DHT22;11215;51.938;8.464;2023-09-19T05:53:50;17.80;69.80
22098;DHT22;11215;51.938;8.464;2023-09-19T05:56:17;17.80;69.90
22098;DHT22;11215;51.938;8.464;2023-09-19T05:58:44;17.80;69.80
22098;DHT22;11215;51.938;8.464;2023-09-19T06:01:10;17.80;69.80
22098;DHT22;11215;51.938;8.464;2023-09-19T06:03:35;17.80;69.90
22098;DHT22;11215;51.938;8.464;2023-09-19T06:06:02;17.70;69.80
22098;DHT22;11215;51.938;8.464;2023-09-19T06:08:27;17.70;69.80
22098;DHT22;11215;51.938;8.464;2023-09-19T06:10:54;17.70;69.70
22098;DHT22;11215;51.938;8.464;2023-09-19T06:16:41;17.70;69.50
22098;DHT22;11215;51.938;8.464;2023-09-19T06:19:08;17.70;69.80
22098;DHT22;11215;51.938;8.464;2023-09-19T06:21:35;17.70;69.80
22098;DHT22;11215;51.938;8.464;2023-09-19T06:24:02;17.70;69.80
22098;DHT22;11215;51.938;8.464;2023-09-19T06:26:28;17.70;70.00
22098;DHT22;11215;51.938;8.464;2023-09-19T06:28:54;17.80;70.10
22098;DHT22;11215;51.938;8.464;2023-09-19T06:31:21;17.80;70.20
22098;DHT22;11215;51.938;8.464;2023-09-19T06:33:48;17.80;70.30
22098;DHT22;11215;51.938;8.464;2023-09-19T06:36:14;17.80;70.20
22098;DHT22;11215;51.938;8.464;2023-09-19T06:38:40;17.90;70.30
22098;DHT22;11215;51.938;8.464;2023-09-19T06:41:06;17.90;70.30
22098;DHT22;11215;51.938;8.464;2023-09-19T06:43:35;17.90;70.20
22098;DHT22;11215;51.938;8.464;2023-09-19T06:46:01;17.90;70.20
22098;DHT22;11215;51.938;8.464;2023-09-19T06:48:27;18.00;69.90
22098;DHT22;11215;51.938;8.464;2023-09-19T06:50:55;18.00;69.90
22098;DHT22;11215;51.938;8.464;2023-09-19T06:53:21;18.00;69.90
22098;DHT22;11215;51.938;8.464;2023-09-19T06:55:50;18.00;69.90
22098;DHT22;11215;51.938;8.464;2023-09-19T06:58:15;18.00;69.90
22098;DHT22;11215;51.938;8.464;2023-09-19T07:00:42;18.10;70.10
22098;DHT22;11215;51.938;8.464;2023-09-19T07:03:08;18.10;70.00
22098;DHT22;11215;51.938;8.464;2023-09-19T07:05:37;18.10;69.90
22098;DHT22;11215;51.938;8.464;2023-09-19T07:08:06;18.20;70.00
22098;DHT22;11215;51.938;8.464;2023-09-19T07:10:32;18.10;69.90
22098;DHT22;11215;51.938;8.464;2023-09-19T07:13:04;18.20;69.70
22098;DHT22;11215;51.938;8.464;2023-09-19T07:15:32;18.20;69.60
22098;DHT22;11215;51.938;8.464;2023-09-19T07:18:01;18.20;69.60
22098;DHT22;11215;51.938;8.464;2023-09-19T07:20:26;18.20;69.40
22098;DHT22;11215;51.938;8.464;2023-09-19T07:22:53;18.20;69.50
22098;DHT22;11215;51.938;8.464;2023-09-19T07:25:21;18.20;69.50
22098;DHT22;11215;51.938;8.464;2023-09-19T07:27:47;18.30;69.40
22098;DHT22;11215;51.938;8.464;2023-09-19T07:30:13;18.20;69.50
22098;DHT22;11215;51.938;8.464;2023-09-19T07:32:38;18.30;69.70
22098;DHT22;11215;51.938;8.464;2023-09-19T07:35:06;18.30;69.40
22098;DHT22;11215;51.938;8.464;2023-09-19T07:37:32;18.30;69.30
22098;DHT22;11215;51.938;8.464;2023-09-19T07:40:02;18.30;69.50
22098;DHT22;11215;51.938;8.464;2023-09-19T07:42:35;18.30;69.50
22098;DHT22;11215;51.938;8.464;2023-09-19T07:45:02;18.30;69.60
22098;DHT22;11215;51.938;8.464;2023-09-19T07:47:28;18.40;69.70
22098;DHT22;11215;51.938;8.464;2023-09-19T07:49:55;18.30;69.70
22098;DHT22;11215;51.938;8.464;2023-09-19T07:52:21;18.40;69.70
22098;DHT22;11215;51.938;8.464;2023-09-19T07:54:48;18.40;69.50
22098;DHT22;11215;51.938;8.464;2023-09-19T07:57:15;18.50;69.60
22098;DHT22;11215;51.938;8.464;2023-09-19T07:59:41;18.40;69.50
22098;DHT22;11215;51.938;8.464;2023-09-19T08:02:08;18.50;69.40
22098;DHT22;11215;51.938;8.464;2023-09-19T08:04:35;18.50;69.40
22098;DHT22;11215;51.938;8.464;2023-09-19T08:07:01;18.50;69.40
22098;DHT22;11215;51.938;8.464;2023-09-19T08:09:29;18.60;69.40
22098;DHT22;11215;51.938;8.464;2023-09-19T08:11:59;18.60;69.30
22098;DHT22;11215;51.938;8.464;2023-09-19T08:14:28;18.60;69.40
22098;DHT22;11215;51.938;8.464;2023-09-19T08:16:57;18.60;69.40
22098;DHT22;11215;51.938;8.464;2023-09-19T08:19:24;18.60;69.50
22098;DHT22;11215;51.938;8.464;2023-09-19T08:21:57;18.70;69.40
22098;DHT22;11215;51.938;8.464;2023-09-19T08:24:27;18.70;69.10
22098;DHT22;11215;51.938;8.464;2023-09-19T08:26:57;18.70;69.20
22098;DHT22;11215;51.938;8.464;2023-09-19T08:29:24;18.80;69.40
22098;DHT22;11215;51.938;8.464;2023-09-19T08:31:59;18.80;69.40
22098;DHT22;11215;51.938;8.464;2023-09-19T08:34:25;18.80;69.30
22098;DHT22;11215;51.938;8.464;2023-09-19T08:36:51;18.80;69.10
22098;DHT22;11215;51.938;8.464;2023-09-19T08:39:18;18.90;68.90
22098;DHT22;11215;51.938;8.464;2023-09-19T08:41:44;18.90;68.90
22098;DHT22;11215;51.938;8.464;2023-09-19T08:44:10;18.90;68.50
22098;DHT22;11215;51.938;8.464;2023-09-19T08:46:40;18.90;68.40
22098;DHT22;11215;51.938;8.464;2023-09-19T08:49:33;18.90;68.50
22098;DHT22;11215;51.938;8.464;2023-09-19T08:52:13;19.00;68.20
22098;DHT22;11215;51.938;8.464;2023-09-19T08:54:41;19.00;68.20
22098;DHT22;11215;51.938;8.464;2023-09-19T08:57:08;19.00;68.30
22098;DHT22;11215;51.938;8.464;2023-09-19T08:59:37;19.00;68.20
22098;DHT22;11215;51.938;8.464;2023-09-19T09:02:10;19.00;68.20
22098;DHT22;11215;51.938;8.464;2023-09-19T09:04:40;19.10;68.00
22098;DHT22;11215;51.938;8.464;2023-09-19T09:07:13;19.10;68.20
22098;DHT22;11215;51.938;8.464;2023-09-19T09:09:39;19.10;68.10
22098;DHT22;11215;51.938;8.464;2023-09-19T09:12:13;19.10;67.90
22098;DHT22;11215;51.938;8.464;2023-09-19T09:14:46;19.10;67.90
22098;DHT22;11215;51.938;8.464;2023-09-19T09:17:15;19.20;67.80
22098;DHT22;11215;51.938;8.464;2023-09-19T09:19:46;19.20;67.60
22098;DHT22;11215;51.938;8.464;2023-09-19T09:22:12;19.20;67.60
22098;DHT22;11215;51.938;8.464;2023-09-19T09:24:52;19.20;67.50
22098;DHT22;11215;51.938;8.464;2023-09-19T09:27:19;19.30;66.90
22098;DHT22;11215;51.938;8.464;2023-09-19T09:29:47;19.30;67.10
22098;DHT22;11215;51.938;8.464;2023-09-19T09:32:18;19.30;67.30
22098;DHT22;11215;51.938;8.464;2023-09-19T09:34:49;19.30;67.30
22098;DHT22;11215;51.938;8.464;2023-09-19T09:37:15;19.30;67.20
22098;DHT22;11215;51.938;8.464;2023-09-19T09:39:49;19.30;67.40
22098;DHT22;11215;51.938;8.464;2023-09-19T09:42:36;19.30;66.20
22098;DHT22;11215;51.938;8.464;2023-09-19T09:47:48;19.40;66.20
22098;DHT22;11215;51.938;8.464;2023-09-19T09:50:28;19.40;66.50
22098;DHT22;11215;51.938;8.464;2023-09-19T09:53:28;19.50;66.00
22098;DHT22;11215;51.938;8.464;2023-09-19T09:56:05;19.50;65.80
22098;DHT22;11215;51.938;8.464;2023-09-19T09:58:36;19.50;65.90
22098;DHT22;11215;51.938;8.464;2023-09-19T10:01:03;19.50;65.80
22098;DHT22;11215;51.938;8.464;2023-09-19T10:03:38;19.50;66.10
22098;DHT22;11215;51.938;8.464;2023-09-19T10:06:15;19.50;65.20
22098;DHT22;11215;51.938;8.464;2023-09-19T10:09:06;19.50;65.10
22098;DHT22;11215;51.938;8.464;2023-09-19T10:12:18;19.60;65.10
22098;DHT22;11215;51.938;8.464;2023-09-19T10:14:27;19.60;65.70
22098;DHT22;11215;51.938;8.464;2023-09-19T10:16:58;19.60;65.30
22098;DHT22;11215;51.938;8.464;2023-09-19T10:19:54;19.60;65.50
22098;DHT22;11215;51.938;8.464;2023-09-19T10:22:23;19.60;65.40
22098;DHT22;11215;51.938;8.464;2023-09-19T10:24:52;19.70;65.50
22098;DHT22;11215;51.938;8.464;2023-09-19T10:27:20;19.70;65.20
22098;DHT22;11215;51.938;8.464;2023-09-19T10:29:49;19.70;65.00
22098;DHT22;11215;51.938;8.464;2023-09-19T10:32:16;19.70;65.00
22098;DHT22;11215;51.938;8.464;2023-09-19T10:34:47;19.70;64.80
22098;DHT22;11215;51.938;8.464;2023-09-19T10:37:13;19.80;64.20
22098;DHT22;11215;51.938;8.464;2023-09-19T10:39:40;19.80;64.30
22098;DHT22;11215;51.938;8.464;2023-09-19T10:42:08;19.80;63.60
22098;DHT22;11215;51.938;8.464;2023-09-19T10:44:38;19.90;63.90
22098;DHT22;11215;51.938;8.464;2023-09-19T10:47:08;19.90;64.30
22098;DHT22;11215;51.938;8.464;2023-09-19T10:49:34;19.90;64.60
22098;DHT22;11215;51.938;8.464;2023-09-19T10:52:01;19.90;64.40
22098;DHT22;11215;51.938;8.464;2023-09-19T10:54:31;20.00;64.10
22098;DHT22;11215;51.938;8.464;2023-09-19T10:56:59;20.00;64.30
22098;DHT22;11215;51.938;8.464;2023-09-19T10:59:26;20.00;64.30
22098;DHT22;11215;51.938;8.464;2023-09-19T11:02:00;20.10;64.40
22098;DHT22;11215;51.938;8.464;2023-09-19T11:04:40;20.10;64.70
22098;DHT22;11215;51.938;8.464;2023-09-19T11:07:07;20.20;64.80
22098;DHT22;11215;51.938;8.464;2023-09-19T11:09:49;20.30;64.70
22098;DHT22;11215;51.938;8.464;2023-09-19T11:18:51;20.50;63.40
22098;DHT22;11215;51.938;8.464;2023-09-19T11:26:50;20.60;61.80
22098;DHT22;11215;51.938;8.464;2023-09-19T11:29:35;20.60;62.00
22098;DHT22;11215;51.938;8.464;2023-09-19T11:32:03;20.70;61.20
22098;DHT22;11215;51.938;8.464;2023-09-19T11:40:10;20.70;61.50
22098;DHT22;11215;51.938;8.464;2023-09-19T11:42:43;20.80;61.00
22098;DHT22;11215;51.938;8.464;2023-09-19T11:48:14;20.80;60.90
22098;DHT22;11215;51.938;8.464;2023-09-19T11:50:42;20.80;60.90
22098;DHT22;11215;51.938;8.464;2023-09-19T11:53:13;20.80;61.20
22098;DHT22;11215;51.938;8.464;2023-09-19T11:55:43;20.80;60.90
22098;DHT22;11215;51.938;8.464;2023-09-19T11:58:09;20.90;60.80
22098;DHT22;11215;51.938;8.464;2023-09-19T12:00:39;20.90;61.10
22098;DHT22;11215;51.938;8.464;2023-09-19T12:03:10;21.00;60.90
22098;DHT22;11215;51.938;8.464;2023-09-19T12:05:37;21.00;60.60
22098;DHT22;11215;51.938;8.464;2023-09-19T12:08:07;21.10;61.10
22098;DHT22;11215;51.938;8.464;2023-09-19T12:10:54;21.20;61.50
22098;DHT22;11215;51.938;8.464;2023-09-19T12:13:23;21.20;60.50
22098;DHT22;11215;51.938;8.464;2023-09-19T12:15:49;21.30;60.70
22098;DHT22;11215;51.938;8.464;2023-09-19T12:18:28;21.40;60.30
22098;DHT22;11215;51.938;8.464;2023-09-19T12:20:53;21.40;59.40
22098;DHT22;11215;51.938;8.464;2023-09-19T12:23:20;21.40;59.70
22098;DHT22;11215;51.938;8.464;2023-09-19T12:25:46;21.50;59.60
22098;DHT22;11215;51.938;8.464;2023-09-19T12:28:15;21.50;59.80
22098;DHT22;11215;51.938;8.464;2023-09-19T12:30:47;21.50;60.00
22098;DHT22;11215;51.938;8.464;2023-09-19T12:33:19;21.50;59.70
22098;DHT22;11215;51.938;8.464;2023-09-19T12:35:46;21.50;59.60
22098;DHT22;11215;51.938;8.464;2023-09-19T12:38:26;21.60;59.70
22098;DHT22;11215;51.938;8.464;2023-09-19T12:40:56;21.60;58.30
22098;DHT22;11215;51.938;8.464;2023-09-19T12:43:22;21.60;59.20
22098;DHT22;11215;51.938;8.464;2023-09-19T12:45:48;21.70;59.30
22098;DHT22;11215;51.938;8.464;2023-09-19T12:53:34;21.80;58.30
22098;DHT22;11215;51.938;8.464;2023-09-19T12:56:05;21.90;58.80
22098;DHT22;11215;51.938;8.464;2023-09-19T12:58:32;21.90;58.60
22098;DHT22;11215;51.938;8.464;2023-09-19T13:00:59;21.90;58.40
22098;DHT22;11215;51.938;8.464;2023-09-19T13:03:27;21.90;58.30
22098;DHT22;11215;51.938;8.464;2023-09-19T13:05:55;21.90;57.70
22098;DHT22;11215;51.938;8.464;2023-09-19T13:08:27;21.90;57.80
22098;DHT22;11215;51.938;8.464;2023-09-19T13:11:05;21.90;57.70
22098;DHT22;11215;51.938;8.464;2023-09-19T13:13:43;21.90;57.30
22098;DHT22;11215;51.938;8.464;2023-09-19T13:16:15;21.90;57.40
22098;DHT22;11215;51.938;8.464;2023-09-19T13:18:50;21.90;57.70
22098;DHT22;11215;51.938;8.464;2023-09-19T13:21:17;21.90;56.70
22098;DHT22;11215;51.938;8.464;2023-09-19T13:23:53;21.90;57.70
22098;DHT22;11215;51.938;8.464;2023-09-19T13:26:27;21.90;58.20
22098;DHT22;11215;51.938;8.464;2023-09-19T13:28:54;22.00;57.30
22098;DHT22;11215;51.938;8.464;2023-09-19T13:31:20;22.00;57.80
22098;DHT22;11215;51.938;8.464;2023-09-19T13:33:48;22.00;57.80
22098;DHT22;11215;51.938;8.464;2023-09-19T13:36:13;22.00;57.00
22098;DHT22;11215;51.938;8.464;2023-09-19T13:38:40;22.00;57.30
22098;DHT22;11215;51.938;8.464;2023-09-19T13:41:12;22.00;57.60
22098;DHT22;11215;51.938;8.464;2023-09-19T13:43:38;22.10;57.40
22098;DHT22;11215;51.938;8.464;2023-09-19T13:46:05;22.10;57.10
22098;DHT22;11215;51.938;8.464;2023-09-19T13:48:33;22.10;56.30
22098;DHT22;11215;51.938;8.464;2023-09-19T13:51:02;22.10;56.80
22098;DHT22;11215;51.938;8.464;2023-09-19T13:53:29;22.10;56.90
22098;DHT22;11215;51.938;8.464;2023-09-19T13:55:54;22.10;56.80
22098;DHT22;11215;51.938;8.464;2023-09-19T13:58:20;22.10;56.10
22098;DHT22;11215;51.938;8.464;2023-09-19T14:00:48;22.10;56.50
22098;DHT22;11215;51.938;8.464;2023-09-19T14:03:14;22.10;56.10
22098;DHT22;11215;51.938;8.464;2023-09-19T14:05:39;22.10;56.50
22098;DHT22;11215;51.938;8.464;2023-09-19T14:08:05;22.20;56.20
22098;DHT22;11215;51.938;8.464;2023-09-19T14:11:05;22.20;56.40
22098;DHT22;11215;51.938;8.464;2023-09-19T14:13:32;22.20;55.80
22098;DHT22;11215;51.938;8.464;2023-09-19T14:16:02;22.20;56.00
22098;DHT22;11215;51.938;8.464;2023-09-19T14:18:30;22.20;56.30
22098;DHT22;11215;51.938;8.464;2023-09-19T14:20:55;22.20;56.40
22098;DHT22;11215;51.938;8.464;2023-09-19T14:23:21;22.20;56.40
22098;DHT22;11215;51.938;8.464;2023-09-19T14:25:48;22.30;56.60
22098;DHT22;11215;51.938;8.464;2023-09-19T14:28:14;22.30;56.70
22098;DHT22;11215;51.938;8.464;2023-09-19T14:30:40;22.30;56.80
22098;DHT22;11215;51.938;8.464;2023-09-19T14:33:05;22.30;56.50
22098;DHT22;11215;51.938;8.464;2023-09-19T14:35:32;22.30;56.30
22098;DHT22;11215;51.938;8.464;2023-09-19T14:37:58;22.30;56.50
22098;DHT22;11215;51.938;8.464;2023-09-19T14:40:24;22.30;56.60
22098;DHT22;11215;51.938;8.464;2023-09-19T14:42:51;22.30;56.60
22098;DHT22;11215;51.938;8.464;2023-09-19T14:45:16;22.40;56.60
22098;DHT22;11215;51.938;8.464;2023-09-19T14:47:45;22.40;56.40
22098;DHT22;11215;51.938;8.464;2023-09-19T14:50:11;22.30;56.20
22098;DHT22;11215;51.938;8.464;2023-09-19T14:52:38;22.30;56.20
22098;DHT22;11215;51.938;8.464;2023-09-19T14:55:06;22.30;56.30
22098;DHT22;11215;51.938;8.464;2023-09-19T14:57:32;22.30;56.30
22098;DHT22;11215;51.938;8.464;2023-09-19T14:59:58;22.40;56.20
22098;DHT22;11215;51.938;8.464;2023-09-19T15:02:25;22.40;55.90
22098;DHT22;11215;51.938;8.464;2023-09-19T15:04:52;22.40;56.00
22098;DHT22;11215;51.938;8.464;2023-09-19T15:07:18;22.40;55.80
22098;DHT22;11215;51.938;8.464;2023-09-19T15:09:43;22.40;56.00
22098;DHT22;11215;51.938;8.464;2023-09-19T15:12:09;22.40;55.90
22098;DHT22;11215;51.938;8.464;2023-09-19T15:14:39;22.40;55.90
22098;DHT22;11215;51.938;8.464;2023-09-19T15:17:05;22.30;55.90
22098;DHT22;11215;51.938;8.464;2023-09-19T15:19:31;22.30;56.00
22098;DHT22;11215;51.938;8.464;2023-09-19T15:21:57;22.30;56.10
22098;DHT22;11215;51.938;8.464;2023-09-19T15:24:23;22.30;55.70
22098;DHT22;11215;51.938;8.464;2023-09-19T15:26:52;22.30;55.80
22098;DHT22;11215;51.938;8.464;2023-09-19T15:29:17;22.20;55.70
22098;DHT22;11215;51.938;8.464;2023-09-19T15:31:45;22.20;56.00
22098;DHT22;11215;51.938;8.464;2023-09-19T15:34:10;22.20;55.70
22098;DHT22;11215;51.938;8.464;2023-09-19T15:36:39;22.20;55.80
22098;DHT22;11215;51.938;8.464;2023-09-19T15:39:06;22.20;55.50
22098;DHT22;11215;51.938;8.464;2023-09-19T15:41:33;22.20;55.30
22098;DHT22;11215;51.938;8.464;2023-09-19T15:44:01;22.20;55.40
22098;DHT22;11215;51.938;8.464;2023-09-19T15:46:28;22.20;55.20
22098;DHT22;11215;51.938;8.464;2023-09-19T15:48:55;22.10;54.60
22098;DHT22;11215;51.938;8.464;2023-09-19T15:51:21;22.10;54.70
22098;DHT22;11215;51.938;8.464;2023-09-19T15:53:48;22.10;54.60
22098;DHT22;11215;51.938;8.464;2023-09-19T15:56:15;22.10;54.30
22098;DHT22;11215;51.938;8.464;2023-09-19T15:58:44;22.10;54.60
22098;DHT22;11215;51.938;8.464;2023-09-19T16:01:11;22.10;54.40
22098;DHT22;11215;51.938;8.464;2023-09-19T16:03:44;22.10;54.50
22098;DHT22;11215;51.938;8.464;2023-09-19T16:06:11;22.10;53.80
22098;DHT22;11215;51.938;8.464;2023-09-19T16:09:15;22.10;54.50
22098;DHT22;11215;51.938;8.464;2023-09-19T16:11:41;22.10;54.10
22098;DHT22;11215;51.938;8.464;2023-09-19T16:14:07;22.10;54.50
22098;DHT22;11215;51.938;8.464;2023-09-19T16:16:35;22.10;54.60
22098;DHT22;11215;51.938;8.464;2023-09-19T16:19:02;22.10;54.70
22098;DHT22;11215;51.938;8.464;2023-09-19T16:21:33;22.10;54.40
22098;DHT22;11215;51.938;8.464;2023-09-19T16:24:02;22.10;54.60
22098;DHT22;11215;51.938;8.464;2023-09-19T16:26:28;22.10;54.40
22098;DHT22;11215;51.938;8.464;2023-09-19T16:28:56;22.10;54.40